首页
METAR-TAF:

METAR-TAF

机场 :

普吕涅尔

Romorantin-Lanthenay, 法国

纬度: 47-19N, 经度: 001-41E, 海拔: 85米

当前天气观测

该预报发布于24分钟前的15:00 UTC
风速3节,风向多变
温度 27°C
湿度 39%
气压 1016 hPa
能见度10公里或以上
1500米以下无云,无积雨云

METAR: LFYR 171500Z AUTO VRB03KT CAVOK 27/12 Q1016 NOSIG

时间: 17:24 (15:24 UTC)


TAF: 丢失

超过4000个机场的气象观测和天气预报(METAR&TAF报告)。

可查询的气象台以黄色和红色小点在地图上表示。

将鼠标移到小点上方,可查看气象台名称。

然后点击查看天气观测和预报。

如需切换地图:点击带黑十字的绿色按钮放大地图;点击带横线的绿色按钮缩小地图;或者点击绿色箭头查看邻近地区的地图。


METAR-TAF: